createdAt,value
2022-12-23T00:01:36.965Z,8.30
2022-12-23T00:04:04.057Z,8.30
2022-12-23T00:06:31.018Z,8.30
2022-12-23T00:09:00.717Z,8.30
2022-12-23T00:11:28.863Z,8.30
2022-12-23T00:14:20.392Z,8.30
2022-12-23T00:16:49.168Z,8.40
2022-12-23T00:19:16.237Z,8.40
2022-12-23T00:21:43.234Z,8.40
2022-12-23T00:24:11.788Z,8.40
2022-12-23T00:26:39.007Z,8.40
2022-12-23T00:29:05.876Z,8.40
2022-12-23T00:31:32.997Z,8.50
2022-12-23T00:34:00.071Z,8.50
2022-12-23T00:36:31.151Z,8.50
2022-12-23T00:39:18.203Z,8.50
2022-12-23T00:42:04.282Z,8.60
2022-12-23T00:44:31.226Z,8.60
2022-12-23T00:46:58.192Z,8.60
2022-12-23T00:49:43.661Z,8.70
2022-12-23T00:52:15.631Z,8.70
2022-12-23T00:54:42.823Z,8.70
2022-12-23T00:57:09.917Z,8.80
2022-12-23T00:59:36.875Z,8.90
2022-12-23T01:02:22.903Z,8.90
2022-12-23T01:05:08.545Z,8.80
2022-12-23T01:07:35.536Z,9.20
2022-12-23T01:10:02.511Z,9.20
2022-12-23T01:12:29.363Z,9.40
2022-12-23T01:14:56.475Z,9.40
2022-12-23T01:17:23.468Z,9.50
2022-12-23T01:19:51.423Z,9.50
2022-12-23T01:22:18.348Z,9.60
2022-12-23T01:24:45.304Z,9.60
2022-12-23T01:27:12.197Z,9.70
2022-12-23T01:29:39.183Z,9.70
2022-12-23T01:32:06.244Z,9.70
2022-12-23T01:34:37.231Z,9.80
2022-12-23T01:37:05.112Z,9.80
2022-12-23T01:39:32.181Z,9.80
2022-12-23T01:42:17.602Z,9.80
2022-12-23T01:44:58.103Z,9.90
2022-12-23T01:47:42.404Z,9.90
2022-12-23T01:50:32.351Z,9.90
2022-12-23T01:53:11.998Z,9.90
2022-12-23T01:55:59.329Z,9.90
2022-12-23T01:58:33.596Z,9.90
2022-12-23T02:01:20.022Z,9.90
2022-12-23T02:03:48.613Z,9.90
2022-12-23T02:06:37.852Z,9.90
2022-12-23T02:09:18.107Z,9.90
2022-12-23T02:11:54.015Z,9.80
2022-12-23T02:14:51.485Z,9.80
2022-12-23T02:17:30.542Z,9.70
2022-12-23T02:20:20.754Z,9.70
2022-12-23T02:23:20.795Z,9.60
2022-12-23T02:26:18.908Z,9.60
2022-12-23T02:29:07.764Z,9.60
2022-12-23T02:31:59.039Z,9.70
2022-12-23T02:34:49.575Z,9.70
2022-12-23T02:38:09.314Z,9.70
2022-12-23T02:40:54.801Z,9.70
2022-12-23T02:43:45.305Z,9.70
2022-12-23T02:46:45.083Z,9.70
2022-12-23T02:49:47.484Z,9.80
2022-12-23T02:52:18.486Z,9.80
2022-12-23T02:54:51.831Z,9.80
2022-12-23T02:57:27.040Z,9.80
2022-12-23T02:59:55.099Z,9.90
2022-12-23T03:02:22.155Z,9.90
2022-12-23T03:04:49.671Z,9.90
2022-12-23T03:07:40.739Z,9.90
2022-12-23T03:10:34.434Z,10.00
2022-12-23T03:13:10.243Z,10.00
2022-12-23T03:15:51.892Z,10.00
2022-12-23T03:18:45.190Z,10.00
2022-12-23T03:21:30.000Z,10.00
2022-12-23T03:24:21.818Z,10.00
2022-12-23T03:27:05.529Z,10.00
2022-12-23T03:29:57.695Z,10.00
2022-12-23T03:32:28.305Z,10.10
2022-12-23T03:34:59.197Z,10.10
2022-12-23T03:37:28.765Z,10.10
2022-12-23T03:40:15.852Z,10.20
2022-12-23T03:42:46.639Z,10.20
2022-12-23T03:45:39.759Z,10.20
2022-12-23T03:48:23.994Z,10.20
2022-12-23T03:50:55.801Z,10.20
2022-12-23T03:53:39.990Z,10.20
2022-12-23T03:56:16.967Z,10.20
2022-12-23T03:59:03.379Z,10.20
2022-12-23T04:01:55.096Z,10.20
2022-12-23T04:04:30.669Z,10.20
2022-12-23T04:07:26.885Z,10.20
2022-12-23T04:09:54.760Z,10.20
2022-12-23T04:12:24.220Z,10.20
2022-12-23T04:14:51.737Z,10.20
2022-12-23T04:17:19.246Z,10.20
2022-12-23T04:19:47.098Z,10.30
2022-12-23T04:22:15.738Z,10.30
2022-12-23T04:24:43.313Z,10.30
2022-12-23T04:27:14.237Z,10.30
2022-12-23T04:29:41.378Z,10.30
2022-12-23T04:32:08.656Z,10.30
2022-12-23T04:34:35.981Z,10.30
2022-12-23T04:37:03.080Z,10.30
2022-12-23T04:39:29.982Z,10.30
2022-12-23T04:41:57.022Z,10.30
2022-12-23T04:44:23.903Z,10.30
2022-12-23T04:46:51.220Z,10.30
2022-12-23T04:49:18.177Z,10.30
2022-12-23T04:51:45.112Z,10.30
2022-12-23T04:54:12.080Z,10.30
2022-12-23T04:56:39.047Z,10.30
2022-12-23T04:59:05.927Z,10.30
2022-12-23T05:01:33.088Z,10.30
2022-12-23T05:03:59.975Z,10.30
2022-12-23T05:06:27.123Z,10.30
2022-12-23T05:08:54.100Z,10.30
2022-12-23T05:11:21.129Z,10.30
2022-12-23T05:13:49.089Z,10.30
2022-12-23T05:16:16.112Z,10.30
2022-12-23T05:18:43.021Z,10.30
2022-12-23T05:21:10.115Z,10.30
2022-12-23T05:23:37.937Z,10.30
2022-12-23T05:26:05.337Z,10.30
2022-12-23T05:28:34.491Z,10.30
2022-12-23T05:31:07.480Z,10.30
2022-12-23T05:33:35.983Z,10.30
2022-12-23T05:36:03.799Z,10.30
2022-12-23T05:38:31.097Z,10.30
2022-12-23T05:40:58.407Z,10.30
2022-12-23T05:43:25.435Z,10.30
2022-12-23T05:45:52.719Z,10.30
2022-12-23T05:48:22.129Z,10.30
2022-12-23T05:50:51.149Z,10.30
2022-12-23T05:53:18.135Z,10.40
2022-12-23T05:55:45.158Z,10.30
2022-12-23T05:58:12.221Z,10.30
2022-12-23T06:00:39.286Z,10.30
2022-12-23T06:03:06.428Z,10.40
2022-12-23T06:05:37.867Z,10.30
2022-12-23T06:08:05.352Z,10.40
2022-12-23T06:10:32.339Z,10.40
2022-12-23T06:12:59.277Z,10.40
2022-12-23T06:15:26.662Z,10.40
2022-12-23T06:17:53.577Z,10.40
2022-12-23T06:20:21.232Z,10.40
2022-12-23T06:22:48.539Z,10.40
2022-12-23T06:25:15.685Z,10.50
2022-12-23T06:27:42.694Z,10.50
2022-12-23T06:30:10.518Z,10.50
2022-12-23T06:32:38.769Z,10.50
2022-12-23T06:35:09.613Z,10.50
2022-12-23T06:37:37.829Z,10.50
2022-12-23T06:40:15.202Z,10.50
2022-12-23T06:42:42.189Z,10.60
2022-12-23T06:45:09.790Z,10.50
2022-12-23T06:47:37.284Z,10.50
2022-12-23T06:50:05.043Z,10.50
2022-12-23T06:52:31.989Z,10.60
2022-12-23T06:54:58.893Z,10.60
2022-12-23T06:57:25.794Z,10.50
2022-12-23T06:59:55.832Z,10.50
2022-12-23T07:02:22.884Z,10.50
2022-12-23T07:04:51.901Z,10.50
2022-12-23T07:07:19.003Z,10.50
2022-12-23T07:09:46.024Z,10.50
2022-12-23T07:12:13.191Z,10.50
2022-12-23T07:14:40.082Z,10.50
2022-12-23T07:17:13.443Z,10.50
2022-12-23T07:19:41.770Z,10.70
2022-12-23T07:22:10.338Z,10.60
2022-12-23T07:24:37.841Z,10.50
2022-12-23T07:27:04.983Z,10.50
2022-12-23T07:29:31.905Z,10.40
2022-12-23T07:31:58.994Z,10.40
2022-12-23T07:34:25.980Z,10.40
2022-12-23T07:36:52.980Z,10.30
2022-12-23T07:39:20.682Z,10.30
2022-12-23T07:41:47.614Z,10.30
2022-12-23T07:44:14.858Z,10.30
2022-12-23T07:46:41.770Z,10.20
2022-12-23T07:49:08.773Z,10.40
2022-12-23T07:51:35.792Z,10.30
2022-12-23T07:54:02.877Z,10.30
2022-12-23T07:56:29.942Z,10.30
2022-12-23T07:58:56.858Z,10.30
2022-12-23T08:01:23.866Z,10.30
2022-12-23T08:03:50.883Z,10.30
2022-12-23T08:06:17.958Z,10.30
2022-12-23T08:08:46.202Z,10.30
2022-12-23T08:11:14.593Z,10.40
2022-12-23T08:13:43.944Z,11.10
2022-12-23T08:16:12.397Z,10.40
2022-12-23T08:18:41.707Z,10.40
2022-12-23T08:21:15.454Z,10.60
2022-12-23T08:23:43.693Z,10.60
2022-12-23T08:26:16.668Z,10.60
2022-12-23T08:28:44.405Z,10.60
2022-12-23T08:31:26.787Z,10.60
2022-12-23T08:33:56.270Z,10.60
2022-12-23T08:36:29.582Z,10.60
2022-12-23T08:39:03.217Z,10.60
2022-12-23T08:41:34.047Z,10.60
2022-12-23T08:44:00.977Z,10.60
2022-12-23T08:46:28.543Z,10.60
2022-12-23T08:48:56.308Z,10.60
2022-12-23T08:51:24.637Z,10.70
2022-12-23T08:54:00.112Z,11.00
2022-12-23T08:56:36.606Z,11.00
2022-12-23T08:59:04.539Z,10.90
2022-12-23T09:01:34.619Z,10.90
2022-12-23T09:04:06.231Z,10.90
2022-12-23T09:06:37.155Z,10.90
2022-12-23T09:09:05.484Z,10.90
2022-12-23T09:11:32.575Z,10.90
2022-12-23T09:14:00.961Z,10.90
2022-12-23T09:16:29.438Z,11.00
2022-12-23T09:18:56.684Z,11.00
2022-12-23T09:21:26.959Z,11.00
2022-12-23T09:23:54.257Z,11.00
2022-12-23T09:26:27.201Z,11.00
2022-12-23T09:28:54.794Z,11.00
2022-12-23T09:31:22.995Z,11.00
2022-12-23T09:33:52.031Z,11.10
2022-12-23T09:36:19.963Z,11.10
2022-12-23T09:38:47.029Z,11.10
2022-12-23T09:41:37.258Z,11.20
2022-12-23T09:44:35.116Z,11.20
2022-12-23T09:47:09.849Z,11.20
2022-12-23T09:49:42.427Z,11.30
2022-12-23T09:52:17.908Z,11.30
2022-12-23T09:54:48.524Z,11.40
2022-12-23T09:57:25.989Z,11.30
2022-12-23T09:59:55.860Z,11.40
2022-12-23T10:02:58.214Z,11.40
2022-12-23T10:05:25.271Z,11.40
2022-12-23T10:08:14.362Z,11.40
2022-12-23T10:10:48.942Z,11.40
2022-12-23T10:13:44.513Z,11.30
2022-12-23T10:16:37.742Z,11.40
2022-12-23T10:19:32.231Z,11.30
2022-12-23T10:22:03.773Z,11.30
2022-12-23T10:24:51.240Z,11.30
2022-12-23T10:27:48.315Z,11.30
2022-12-23T10:30:51.612Z,11.30
2022-12-23T10:33:27.034Z,11.30
2022-12-23T10:36:09.102Z,11.30
2022-12-23T10:38:45.224Z,11.30
2022-12-23T10:41:21.046Z,11.40
2022-12-23T10:44:15.124Z,11.40
2022-12-23T10:47:04.884Z,11.40
2022-12-23T10:49:43.605Z,11.40
2022-12-23T10:52:21.410Z,11.50
2022-12-23T10:54:49.820Z,11.60
2022-12-23T10:57:18.987Z,11.60
2022-12-23T10:59:46.004Z,11.60
2022-12-23T11:02:13.211Z,11.60
2022-12-23T11:04:46.091Z,11.60
2022-12-23T11:10:20.861Z,11.60
2022-12-23T11:12:50.971Z,11.60
2022-12-23T11:15:30.518Z,11.60
2022-12-23T11:18:11.553Z,11.60
2022-12-23T11:20:42.095Z,11.60
2022-12-23T11:23:33.108Z,11.60
2022-12-23T11:26:04.785Z,11.60
2022-12-23T11:28:34.527Z,11.60
2022-12-23T11:31:08.793Z,11.60
2022-12-23T11:33:46.065Z,11.60
2022-12-23T11:36:13.075Z,11.60
2022-12-23T11:39:12.551Z,11.60
2022-12-23T11:41:49.604Z,11.60
2022-12-23T11:44:41.350Z,11.60
2022-12-23T11:47:33.466Z,11.60
2022-12-23T11:50:03.573Z,11.60
2022-12-23T11:52:32.674Z,11.60
2022-12-23T11:55:02.025Z,11.60
2022-12-23T11:57:34.011Z,11.60
2022-12-23T12:00:03.635Z,11.60
2022-12-23T12:02:32.940Z,11.60
2022-12-23T12:05:04.871Z,11.60
2022-12-23T12:07:32.974Z,11.60
2022-12-23T12:10:01.937Z,11.60
2022-12-23T12:12:30.477Z,11.70
2022-12-23T12:14:59.829Z,11.60
2022-12-23T12:17:47.342Z,11.70
2022-12-23T12:20:29.193Z,11.70
2022-12-23T12:23:34.577Z,11.60
2022-12-23T12:26:12.847Z,11.60
2022-12-23T12:28:45.740Z,11.60
2022-12-23T12:31:29.938Z,11.60
2022-12-23T12:34:18.131Z,11.60
2022-12-23T12:36:55.177Z,11.60
2022-12-23T12:39:35.602Z,11.60
2022-12-23T12:42:23.080Z,11.60
2022-12-23T12:45:14.378Z,11.60
2022-12-23T12:48:18.601Z,11.60
2022-12-23T12:51:15.141Z,11.60
2022-12-23T12:54:05.530Z,11.60
2022-12-23T12:56:44.204Z,11.60
2022-12-23T12:59:17.920Z,11.60
2022-12-23T13:02:03.382Z,11.60
2022-12-23T13:05:07.278Z,11.60
2022-12-23T13:07:54.664Z,11.60
2022-12-23T13:10:33.909Z,11.60
2022-12-23T13:13:25.277Z,11.70
2022-12-23T13:16:27.404Z,11.70
2022-12-23T13:19:12.468Z,11.70
2022-12-23T13:21:42.464Z,11.70
2022-12-23T13:24:27.710Z,11.70
2022-12-23T13:26:59.367Z,11.70
2022-12-23T13:30:00.487Z,11.80
2022-12-23T13:32:44.554Z,11.80
2022-12-23T13:35:48.972Z,11.80
2022-12-23T13:38:52.480Z,11.80
2022-12-23T13:41:35.659Z,11.80
2022-12-23T13:44:15.532Z,11.80
2022-12-23T13:47:02.051Z,11.90
2022-12-23T13:49:41.146Z,11.90
2022-12-23T13:52:17.270Z,11.90
2022-12-23T13:55:06.323Z,11.90
2022-12-23T13:57:58.508Z,11.90
2022-12-23T14:00:31.321Z,11.90
2022-12-23T14:02:58.326Z,11.90
2022-12-23T14:05:39.463Z,11.90
2022-12-23T14:08:20.239Z,11.90
2022-12-23T14:11:19.973Z,11.90
2022-12-23T14:13:49.957Z,11.90
2022-12-23T14:16:37.184Z,11.80
2022-12-23T14:19:19.169Z,11.80
2022-12-23T14:22:04.233Z,11.80
2022-12-23T14:24:43.465Z,11.80
2022-12-23T14:27:49.398Z,11.80
2022-12-23T14:30:24.303Z,11.80
2022-12-23T14:33:31.433Z,11.80
2022-12-23T14:36:23.745Z,11.90
2022-12-23T14:39:28.917Z,11.90
2022-12-23T14:42:03.480Z,11.90
2022-12-23T14:44:36.076Z,11.90
2022-12-23T14:47:23.854Z,11.90
2022-12-23T14:49:50.843Z,11.90
2022-12-23T14:52:39.375Z,11.90
2022-12-23T14:55:31.884Z,11.90
2022-12-23T14:58:17.466Z,11.90
2022-12-23T15:01:03.496Z,11.90
2022-12-23T15:03:35.063Z,11.90
2022-12-23T15:06:06.724Z,11.90
2022-12-23T15:08:42.530Z,11.90
2022-12-23T15:11:35.574Z,11.90
2022-12-23T15:14:14.482Z,11.90
2022-12-23T15:16:45.173Z,11.90
2022-12-23T15:19:32.867Z,11.90
2022-12-23T15:22:20.662Z,11.90
2022-12-23T15:24:49.441Z,11.90
2022-12-23T15:27:27.007Z,11.90
2022-12-23T15:29:55.413Z,11.90
2022-12-23T15:32:24.535Z,11.90
2022-12-23T15:34:53.116Z,11.90
2022-12-23T15:37:29.031Z,11.90
2022-12-23T15:40:04.796Z,11.90
2022-12-23T15:42:38.519Z,11.90
2022-12-23T15:45:38.195Z,11.90
2022-12-23T15:48:21.468Z,11.90
2022-12-23T15:50:51.265Z,11.90
2022-12-23T15:53:19.116Z,11.90
2022-12-23T15:55:48.942Z,11.90
2022-12-23T15:58:22.471Z,11.90
2022-12-23T16:00:54.525Z,11.80
2022-12-23T16:03:38.228Z,11.90
2022-12-23T16:06:09.928Z,11.80
2022-12-23T16:08:38.281Z,11.90
2022-12-23T16:11:37.979Z,11.90
2022-12-23T16:14:35.637Z,11.90
2022-12-23T16:17:34.001Z,11.90
2022-12-23T16:20:30.418Z,11.90
2022-12-23T16:23:02.974Z,11.90
2022-12-23T16:25:33.630Z,11.80
2022-12-23T16:28:13.263Z,11.80
2022-12-23T16:30:42.433Z,11.80
2022-12-23T16:33:34.147Z,11.80
2022-12-23T16:36:23.620Z,11.80
2022-12-23T16:39:00.710Z,11.80
2022-12-23T16:41:27.842Z,11.80
2022-12-23T16:43:54.986Z,11.80
2022-12-23T16:46:23.457Z,11.00
2022-12-23T16:48:53.369Z,11.80
2022-12-23T16:51:22.908Z,11.80
2022-12-23T16:53:52.568Z,11.80
2022-12-23T16:56:21.059Z,11.80
2022-12-23T16:58:48.100Z,11.90
2022-12-23T17:01:28.388Z,11.80
2022-12-23T17:03:56.039Z,11.80
2022-12-23T17:06:24.163Z,11.80
2022-12-23T17:08:51.439Z,11.80
2022-12-23T17:11:24.280Z,11.80
2022-12-23T17:13:51.869Z,11.80
2022-12-23T17:16:24.397Z,11.70
2022-12-23T17:18:53.139Z,11.80
2022-12-23T17:21:36.759Z,11.80
2022-12-23T17:24:11.005Z,11.80
2022-12-23T17:26:38.187Z,11.80
2022-12-23T17:29:05.453Z,11.80
2022-12-23T17:31:34.244Z,11.80
2022-12-23T17:37:49.668Z,11.70
2022-12-23T17:40:17.422Z,11.70
2022-12-23T17:42:45.482Z,11.80
2022-12-23T17:45:31.807Z,11.80
2022-12-23T17:47:58.697Z,11.70
2022-12-23T17:50:25.689Z,11.70
2022-12-23T17:52:52.610Z,11.70
2022-12-23T17:55:23.163Z,11.70
2022-12-23T17:57:50.488Z,11.70
2022-12-23T18:00:29.588Z,11.70
2022-12-23T18:03:00.771Z,11.70
2022-12-23T18:05:30.864Z,11.70
2022-12-23T18:07:59.337Z,11.70
2022-12-23T18:10:30.632Z,11.70
2022-12-23T18:13:04.904Z,11.70
2022-12-23T18:15:41.495Z,11.70
2022-12-23T18:18:28.959Z,11.70
2022-12-23T18:21:02.494Z,11.70
2022-12-23T18:23:32.467Z,11.70
2022-12-23T18:26:00.113Z,11.70
2022-12-23T18:28:27.392Z,11.70
2022-12-23T18:30:56.888Z,11.70
2022-12-23T18:33:28.642Z,11.70
2022-12-23T18:35:56.114Z,11.70
2022-12-23T18:38:23.143Z,11.70
2022-12-23T18:40:53.953Z,11.70
2022-12-23T18:43:23.592Z,11.70
2022-12-23T18:45:53.470Z,11.70
2022-12-23T18:48:21.678Z,11.70
2022-12-23T18:50:49.036Z,11.70
2022-12-23T18:53:24.616Z,11.70
2022-12-23T18:55:53.286Z,11.70
2022-12-23T18:58:20.867Z,11.80
2022-12-23T19:00:48.792Z,11.80
2022-12-23T19:03:30.276Z,11.80
2022-12-23T19:05:58.493Z,11.80
2022-12-23T19:08:27.681Z,11.70
2022-12-23T19:10:55.783Z,11.70
2022-12-23T19:13:23.124Z,11.70
2022-12-23T19:15:50.602Z,11.40
2022-12-23T19:18:21.930Z,11.70
2022-12-23T19:20:49.669Z,11.70
2022-12-23T19:23:17.220Z,11.70
2022-12-23T19:25:52.566Z,11.70
2022-12-23T19:28:22.353Z,11.70
2022-12-23T19:30:49.606Z,11.70
2022-12-23T19:33:16.698Z,11.70
2022-12-23T19:35:44.392Z,11.70
2022-12-23T19:38:12.461Z,11.70
2022-12-23T19:40:40.000Z,11.70
2022-12-23T19:43:07.634Z,11.70
2022-12-23T19:45:41.172Z,11.70
2022-12-23T19:48:09.172Z,11.70
2022-12-23T19:50:36.128Z,11.70
2022-12-23T19:53:03.093Z,11.70
2022-12-23T19:55:30.036Z,11.70
2022-12-23T19:57:56.888Z,11.70
2022-12-23T20:00:23.861Z,11.60
2022-12-23T20:02:56.650Z,11.60
2022-12-23T20:05:25.775Z,11.60
2022-12-23T20:07:52.721Z,11.50
2022-12-23T20:10:19.738Z,11.50
2022-12-23T20:12:46.710Z,11.50
2022-12-23T20:15:13.658Z,11.50
2022-12-23T20:17:40.784Z,11.50
2022-12-23T20:20:09.337Z,11.50
2022-12-23T20:22:36.299Z,11.40
2022-12-23T20:25:03.891Z,11.40
2022-12-23T20:27:30.994Z,11.40
2022-12-23T20:29:58.034Z,11.40
2022-12-23T20:32:24.941Z,11.40
2022-12-23T20:34:51.982Z,11.40
2022-12-23T20:37:18.959Z,11.30
2022-12-23T20:39:45.888Z,11.40
2022-12-23T20:42:12.882Z,11.40
2022-12-23T20:44:39.773Z,11.30
2022-12-23T20:47:06.955Z,11.30
2022-12-23T20:49:34.194Z,11.30
2022-12-23T20:52:01.562Z,11.30
2022-12-23T20:54:33.127Z,11.30
2022-12-23T20:57:01.285Z,11.30
2022-12-23T20:59:28.318Z,11.40
2022-12-23T21:01:55.673Z,11.30
2022-12-23T21:04:22.899Z,11.30
2022-12-23T21:06:50.245Z,11.30
2022-12-23T21:09:17.362Z,11.30
2022-12-23T21:11:46.339Z,11.20
2022-12-23T21:14:14.559Z,11.30
2022-12-23T21:16:42.715Z,11.20
2022-12-23T21:19:15.945Z,11.20
2022-12-23T21:21:43.202Z,11.10
2022-12-23T21:24:11.133Z,11.10
2022-12-23T21:26:38.736Z,11.10
2022-12-23T21:29:07.871Z,11.10
2022-12-23T21:31:37.809Z,11.00
2022-12-23T21:34:05.310Z,11.00
2022-12-23T21:36:36.501Z,11.00
2022-12-23T21:39:05.657Z,11.00
2022-12-23T21:41:36.602Z,10.90
2022-12-23T21:44:04.813Z,10.90
2022-12-23T21:46:31.865Z,10.90
2022-12-23T21:48:59.541Z,10.80
2022-12-23T21:51:39.387Z,10.70
2022-12-23T21:54:09.505Z,10.80
2022-12-23T21:56:36.851Z,10.70
2022-12-23T21:59:11.544Z,10.70
2022-12-23T22:01:38.619Z,10.70
2022-12-23T22:04:06.081Z,10.70
2022-12-23T22:06:37.295Z,10.60
2022-12-23T22:09:06.112Z,10.60
2022-12-23T22:11:35.477Z,10.60
2022-12-23T22:14:04.007Z,10.50
2022-12-23T22:16:32.344Z,10.50
2022-12-23T22:19:00.753Z,10.50
2022-12-23T22:21:30.393Z,10.40
2022-12-23T22:23:57.939Z,10.40
2022-12-23T22:26:30.863Z,10.40
2022-12-23T22:29:00.247Z,10.40
2022-12-23T22:31:33.352Z,10.30
2022-12-23T22:34:00.698Z,10.30
2022-12-23T22:36:28.159Z,10.30
2022-12-23T22:38:57.907Z,10.20
2022-12-23T22:41:27.121Z,10.30
2022-12-23T22:43:54.539Z,10.30
2022-12-23T22:46:21.580Z,10.30
2022-12-23T22:48:48.791Z,10.20
2022-12-23T22:51:18.753Z,10.20
2022-12-23T22:53:46.949Z,10.20
2022-12-23T22:56:15.726Z,10.20
2022-12-23T22:58:43.410Z,10.20
2022-12-23T23:01:22.982Z,9.80
2022-12-23T23:03:56.829Z,10.10
2022-12-23T23:06:34.993Z,10.10
2022-12-23T23:09:02.130Z,10.00
2022-12-23T23:11:29.295Z,10.00
2022-12-23T23:13:56.865Z,10.00
2022-12-23T23:16:25.065Z,9.90
2022-12-23T23:18:53.270Z,9.90
2022-12-23T23:21:21.275Z,9.90
2022-12-23T23:23:48.366Z,9.80
2022-12-23T23:26:15.667Z,9.80
2022-12-23T23:28:43.162Z,9.80
2022-12-23T23:33:58.038Z,9.70
2022-12-23T23:36:25.653Z,9.60
2022-12-23T23:38:52.668Z,9.50
2022-12-23T23:41:23.182Z,9.50
2022-12-23T23:43:51.279Z,9.50
2022-12-23T23:46:18.770Z,9.40
2022-12-23T23:48:45.839Z,9.40
2022-12-23T23:51:12.954Z,9.30
2022-12-23T23:53:40.600Z,9.20
2022-12-23T23:56:08.873Z,9.20
2022-12-23T23:58:36.796Z,9.10
